sensor_id;sensor_type;location;lat;lon;timestamp;temperature;humidity
75489;HTU21D;64069;46.396;48.102;2023-11-21T00:00:19;7.49;101.75
75489;HTU21D;64069;46.396;48.102;2023-11-21T00:02:45;7.48;101.80
75489;HTU21D;64069;46.396;48.102;2023-11-21T00:05:13;7.47;101.85
75489;HTU21D;64069;46.396;48.102;2023-11-21T00:07:42;7.46;101.92
75489;HTU21D;64069;46.396;48.102;2023-11-21T00:10:09;7.47;101.98
75489;HTU21D;64069;46.396;48.102;2023-11-21T00:12:36;7.46;102.05
75489;HTU21D;64069;46.396;48.102;2023-11-21T00:15:03;7.45;102.14
75489;HTU21D;64069;46.396;48.102;2023-11-21T00:17:31;7.44;102.18
75489;HTU21D;64069;46.396;48.102;2023-11-21T00:19:56;7.44;102.21
75489;HTU21D;64069;46.396;48.102;2023-11-21T00:22:22;7.43;102.25
75489;HTU21D;64069;46.396;48.102;2023-11-21T00:24:48;7.42;102.35
75489;HTU21D;64069;46.396;48.102;2023-11-21T00:27:14;7.41;102.38
75489;HTU21D;64069;46.396;48.102;2023-11-21T00:29:40;7.40;102.48
75489;HTU21D;64069;46.396;48.102;2023-11-21T00:32:07;7.38;102.51
75489;HTU21D;64069;46.396;48.102;2023-11-21T00:34:33;7.37;102.60
75489;HTU21D;64069;46.396;48.102;2023-11-21T00:37:00;7.37;102.62
75489;HTU21D;64069;46.396;48.102;2023-11-21T00:39:26;7.38;102.62
75489;HTU21D;64069;46.396;48.102;2023-11-21T00:41:52;7.38;102.67
75489;HTU21D;64069;46.396;48.102;2023-11-21T00:44:18;7.39;102.67
75489;HTU21D;64069;46.396;48.102;2023-11-21T00:46:44;7.37;102.72
75489;HTU21D;64069;46.396;48.102;2023-11-21T00:49:10;7.38;102.78
75489;HTU21D;64069;46.396;48.102;2023-11-21T00:51:36;7.35;102.86
75489;HTU21D;64069;46.396;48.102;2023-11-21T00:54:02;7.34;102.94
75489;HTU21D;64069;46.396;48.102;2023-11-21T00:56:28;7.31;103.12
75489;HTU21D;64069;46.396;48.102;2023-11-21T00:58:54;7.30;103.15
75489;HTU21D;64069;46.396;48.102;2023-11-21T01:01:21;7.30;103.25
75489;HTU21D;64069;46.396;48.102;2023-11-21T01:03:50;7.29;103.29
75489;HTU21D;64069;46.396;48.102;2023-11-21T01:06:16;7.27;103.42
75489;HTU21D;64069;46.396;48.102;2023-11-21T01:08:43;7.26;103.44
75489;HTU21D;64069;46.396;48.102;2023-11-21T01:11:11;7.25;103.44
75489;HTU21D;64069;46.396;48.102;2023-11-21T01:13:41;7.25;103.42
75489;HTU21D;64069;46.396;48.102;2023-11-21T01:16:08;7.25;103.46
75489;HTU21D;64069;46.396;48.102;2023-11-21T01:18:37;7.26;103.52
75489;HTU21D;64069;46.396;48.102;2023-11-21T01:21:04;7.25;103.57
75489;HTU21D;64069;46.396;48.102;2023-11-21T01:23:30;7.25;103.61
75489;HTU21D;64069;46.396;48.102;2023-11-21T01:25:57;7.26;103.62
75489;HTU21D;64069;46.396;48.102;2023-11-21T01:28:23;7.27;103.68
75489;HTU21D;64069;46.396;48.102;2023-11-21T01:30:49;7.28;103.70
75489;HTU21D;64069;46.396;48.102;2023-11-21T01:33:15;7.28;103.75
75489;HTU21D;64069;46.396;48.102;2023-11-21T01:35:44;7.30;103.78
75489;HTU21D;64069;46.396;48.102;2023-11-21T01:38:12;7.31;103.84
75489;HTU21D;64069;46.396;48.102;2023-11-21T01:40:38;7.32;103.88
75489;HTU21D;64069;46.396;48.102;2023-11-21T01:43:04;7.35;103.95
75489;HTU21D;64069;46.396;48.102;2023-11-21T01:45:30;7.38;103.96
75489;HTU21D;64069;46.396;48.102;2023-11-21T01:48:00;7.39;103.97
75489;HTU21D;64069;46.396;48.102;2023-11-21T01:50:27;7.43;103.99
75489;HTU21D;64069;46.396;48.102;2023-11-21T01:52:54;7.42;104.04
75489;HTU21D;64069;46.396;48.102;2023-11-21T01:55:20;7.45;104.05
75489;HTU21D;64069;46.396;48.102;2023-11-21T01:57:46;7.46;104.08
75489;HTU21D;64069;46.396;48.102;2023-11-21T02:00:13;7.49;104.07
75489;HTU21D;64069;46.396;48.102;2023-11-21T02:02:43;7.52;104.06
75489;HTU21D;64069;46.396;48.102;2023-11-21T02:05:11;7.55;104.05
75489;HTU21D;64069;46.396;48.102;2023-11-21T02:07:39;7.60;103.94
75489;HTU21D;64069;46.396;48.102;2023-11-21T02:10:07;7.63;103.83
75489;HTU21D;64069;46.396;48.102;2023-11-21T02:12:34;7.64;103.74
75489;HTU21D;64069;46.396;48.102;2023-11-21T02:15:05;7.68;103.67
75489;HTU21D;64069;46.396;48.102;2023-11-21T02:17:38;7.68;103.64
75489;HTU21D;64069;46.396;48.102;2023-11-21T02:20:04;7.68;103.63
75489;HTU21D;64069;46.396;48.102;2023-11-21T02:22:36;7.67;103.62
75489;HTU21D;64069;46.396;48.102;2023-11-21T02:25:03;7.65;103.65
75489;HTU21D;64069;46.396;48.102;2023-11-21T02:27:29;7.64;103.65
75489;HTU21D;64069;46.396;48.102;2023-11-21T02:29:55;7.63;103.62
75489;HTU21D;64069;46.396;48.102;2023-11-21T02:32:21;7.65;103.63
75489;HTU21D;64069;46.396;48.102;2023-11-21T02:34:48;7.67;103.63
75489;HTU21D;64069;46.396;48.102;2023-11-21T02:37:15;7.65;103.61
75489;HTU21D;64069;46.396;48.102;2023-11-21T02:39:41;7.67;103.62
75489;HTU21D;64069;46.396;48.102;2023-11-21T02:42:07;7.67;103.64
75489;HTU21D;64069;46.396;48.102;2023-11-21T02:44:34;7.64;103.64
75489;HTU21D;64069;46.396;48.102;2023-11-21T02:47:01;7.63;103.65
75489;HTU21D;64069;46.396;48.102;2023-11-21T02:49:27;7.63;103.66
75489;HTU21D;64069;46.396;48.102;2023-11-21T02:51:54;7.63;103.66
75489;HTU21D;64069;46.396;48.102;2023-11-21T02:54:21;7.63;103.67
75489;HTU21D;64069;46.396;48.102;2023-11-21T02:56:49;7.64;103.67
75489;HTU21D;64069;46.396;48.102;2023-11-21T02:59:15;7.65;103.66
75489;HTU21D;64069;46.396;48.102;2023-11-21T03:01:41;7.69;103.66
75489;HTU21D;64069;46.396;48.102;2023-11-21T03:04:08;7.70;103.65
75489;HTU21D;64069;46.396;48.102;2023-11-21T03:06:34;7.71;103.62
75489;HTU21D;64069;46.396;48.102;2023-11-21T03:09:00;7.73;103.60
75489;HTU21D;64069;46.396;48.102;2023-11-21T03:11:26;7.73;103.59
75489;HTU21D;64069;46.396;48.102;2023-11-21T03:13:52;7.75;103.57
75489;HTU21D;64069;46.396;48.102;2023-11-21T03:16:18;7.75;103.57
75489;HTU21D;64069;46.396;48.102;2023-11-21T03:18:45;7.74;103.59
75489;HTU21D;64069;46.396;48.102;2023-11-21T03:21:12;7.75;103.59
75489;HTU21D;64069;46.396;48.102;2023-11-21T03:23:38;7.74;103.60
75489;HTU21D;64069;46.396;48.102;2023-11-21T03:26:05;7.72;103.57
75489;HTU21D;64069;46.396;48.102;2023-11-21T03:28:35;7.69;103.57
75489;HTU21D;64069;46.396;48.102;2023-11-21T03:31:02;7.63;103.57
75489;HTU21D;64069;46.396;48.102;2023-11-21T03:33:29;7.59;103.60
75489;HTU21D;64069;46.396;48.102;2023-11-21T03:35:55;7.58;103.62
75489;HTU21D;64069;46.396;48.102;2023-11-21T03:38:21;7.54;103.62
75489;HTU21D;64069;46.396;48.102;2023-11-21T03:40:47;7.48;103.61
75489;HTU21D;64069;46.396;48.102;2023-11-21T03:43:14;7.43;103.62
75489;HTU21D;64069;46.396;48.102;2023-11-21T03:45:40;7.35;103.62
75489;HTU21D;64069;46.396;48.102;2023-11-21T03:48:06;7.29;103.67
75489;HTU21D;64069;46.396;48.102;2023-11-21T03:50:32;7.24;103.72
75489;HTU21D;64069;46.396;48.102;2023-11-21T03:52:59;7.19;103.74
75489;HTU21D;64069;46.396;48.102;2023-11-21T03:55:25;7.18;103.73
75489;HTU21D;64069;46.396;48.102;2023-11-21T03:57:51;7.14;103.75
75489;HTU21D;64069;46.396;48.102;2023-11-21T04:00:19;7.13;103.76
75489;HTU21D;64069;46.396;48.102;2023-11-21T04:02:48;7.12;103.76
75489;HTU21D;64069;46.396;48.102;2023-11-21T04:05:14;7.12;103.75
75489;HTU21D;64069;46.396;48.102;2023-11-21T04:07:40;7.15;103.74
75489;HTU21D;64069;46.396;48.102;2023-11-21T04:10:07;7.16;103.69
75489;HTU21D;64069;46.396;48.102;2023-11-21T04:12:35;7.13;103.63
75489;HTU21D;64069;46.396;48.102;2023-11-21T04:15:01;7.11;103.66
75489;HTU21D;64069;46.396;48.102;2023-11-21T04:17:28;7.09;103.67
75489;HTU21D;64069;46.396;48.102;2023-11-21T04:19:54;7.08;103.69
75489;HTU21D;64069;46.396;48.102;2023-11-21T04:22:20;7.07;103.73
75489;HTU21D;64069;46.396;48.102;2023-11-21T04:24:45;7.08;103.71
75489;HTU21D;64069;46.396;48.102;2023-11-21T04:27:11;7.09;103.68
75489;HTU21D;64069;46.396;48.102;2023-11-21T04:29:38;7.09;103.66
75489;HTU21D;64069;46.396;48.102;2023-11-21T04:32:04;7.09;103.64
75489;HTU21D;64069;46.396;48.102;2023-11-21T04:34:31;7.05;103.62
75489;HTU21D;64069;46.396;48.102;2023-11-21T04:37:00;7.03;103.59
75489;HTU21D;64069;46.396;48.102;2023-11-21T04:39:26;7.03;103.57
75489;HTU21D;64069;46.396;48.102;2023-11-21T04:41:53;6.99;103.55
75489;HTU21D;64069;46.396;48.102;2023-11-21T04:44:18;7.00;103.54
75489;HTU21D;64069;46.396;48.102;2023-11-21T04:46:44;6.98;103.54
75489;HTU21D;64069;46.396;48.102;2023-11-21T04:49:10;6.98;103.50
75489;HTU21D;64069;46.396;48.102;2023-11-21T04:51:36;6.96;103.47
75489;HTU21D;64069;46.396;48.102;2023-11-21T04:54:02;6.95;103.45
75489;HTU21D;64069;46.396;48.102;2023-11-21T04:56:28;6.95;103.42
75489;HTU21D;64069;46.396;48.102;2023-11-21T04:58:54;6.94;103.38
75489;HTU21D;64069;46.396;48.102;2023-11-21T05:01:21;6.95;103.34
75489;HTU21D;64069;46.396;48.102;2023-11-21T05:03:47;6.94;103.33
75489;HTU21D;64069;46.396;48.102;2023-11-21T05:06:14;6.93;103.29
75489;HTU21D;64069;46.396;48.102;2023-11-21T05:08:40;6.94;103.25
75489;HTU21D;64069;46.396;48.102;2023-11-21T05:11:07;6.95;103.21
75489;HTU21D;64069;46.396;48.102;2023-11-21T05:13:35;6.96;103.18
75489;HTU21D;64069;46.396;48.102;2023-11-21T05:16:03;6.94;103.12
75489;HTU21D;64069;46.396;48.102;2023-11-21T05:18:32;6.93;103.09
75489;HTU21D;64069;46.396;48.102;2023-11-21T05:20:59;6.93;103.06
75489;HTU21D;64069;46.396;48.102;2023-11-21T05:23:26;6.94;103.04
75489;HTU21D;64069;46.396;48.102;2023-11-21T05:25:52;6.95;102.99
75489;HTU21D;64069;46.396;48.102;2023-11-21T05:28:18;6.94;102.92
75489;HTU21D;64069;46.396;48.102;2023-11-21T05:30:44;6.94;102.90
75489;HTU21D;64069;46.396;48.102;2023-11-21T05:33:11;6.95;102.85
75489;HTU21D;64069;46.396;48.102;2023-11-21T05:35:36;6.95;102.83
75489;HTU21D;64069;46.396;48.102;2023-11-21T05:38:02;6.94;102.78
75489;HTU21D;64069;46.396;48.102;2023-11-21T05:40:29;6.90;102.76
75489;HTU21D;64069;46.396;48.102;2023-11-21T05:42:55;6.86;102.73
75489;HTU21D;64069;46.396;48.102;2023-11-21T05:45:21;6.86;102.72
75489;HTU21D;64069;46.396;48.102;2023-11-21T05:47:47;6.85;102.70
75489;HTU21D;64069;46.396;48.102;2023-11-21T05:50:15;6.85;102.64
75489;HTU21D;64069;46.396;48.102;2023-11-21T05:52:46;6.85;102.59
75489;HTU21D;64069;46.396;48.102;2023-11-21T05:55:12;6.86;102.58
75489;HTU21D;64069;46.396;48.102;2023-11-21T05:57:39;6.85;102.48
75489;HTU21D;64069;46.396;48.102;2023-11-21T06:00:10;6.84;102.43
75489;HTU21D;64069;46.396;48.102;2023-11-21T06:02:38;6.83;102.36
75489;HTU21D;64069;46.396;48.102;2023-11-21T06:05:06;6.83;102.29
75489;HTU21D;64069;46.396;48.102;2023-11-21T06:07:33;6.83;102.21
75489;HTU21D;64069;46.396;48.102;2023-11-21T06:09:59;6.81;102.13
75489;HTU21D;64069;46.396;48.102;2023-11-21T06:12:25;6.78;102.06
75489;HTU21D;64069;46.396;48.102;2023-11-21T06:14:51;6.75;102.02
75489;HTU21D;64069;46.396;48.102;2023-11-21T06:17:17;6.71;101.98
75489;HTU21D;64069;46.396;48.102;2023-11-21T06:19:44;6.69;101.93
75489;HTU21D;64069;46.396;48.102;2023-11-21T06:22:11;6.67;101.88
75489;HTU21D;64069;46.396;48.102;2023-11-21T06:24:37;6.65;101.86
75489;HTU21D;64069;46.396;48.102;2023-11-21T06:27:04;6.65;101.78
75489;HTU21D;64069;46.396;48.102;2023-11-21T06:29:30;6.61;101.75
75489;HTU21D;64069;46.396;48.102;2023-11-21T06:31:57;6.56;101.65
75489;HTU21D;64069;46.396;48.102;2023-11-21T06:34:24;6.54;101.64
75489;HTU21D;64069;46.396;48.102;2023-11-21T06:36:50;6.52;101.57
75489;HTU21D;64069;46.396;48.102;2023-11-21T06:39:17;6.51;101.54
75489;HTU21D;64069;46.396;48.102;2023-11-21T06:41:43;6.53;101.52
75489;HTU21D;64069;46.396;48.102;2023-11-21T06:44:09;6.51;101.43
75489;HTU21D;64069;46.396;48.102;2023-11-21T06:46:35;6.52;101.38
75489;HTU21D;64069;46.396;48.102;2023-11-21T06:49:01;6.50;101.32
75489;HTU21D;64069;46.396;48.102;2023-11-21T06:51:27;6.48;101.27
75489;HTU21D;64069;46.396;48.102;2023-11-21T06:53:52;6.45;101.26
75489;HTU21D;64069;46.396;48.102;2023-11-21T06:56:19;6.43;101.22
75489;HTU21D;64069;46.396;48.102;2023-11-21T06:58:45;6.42;101.19
75489;HTU21D;64069;46.396;48.102;2023-11-21T07:01:13;6.41;101.17
75489;HTU21D;64069;46.396;48.102;2023-11-21T07:03:39;6.41;101.18
75489;HTU21D;64069;46.396;48.102;2023-11-21T07:06:07;6.44;101.15
75489;HTU21D;64069;46.396;48.102;2023-11-21T07:08:33;6.46;101.09
75489;HTU21D;64069;46.396;48.102;2023-11-21T07:10:59;6.45;101.03
75489;HTU21D;64069;46.396;48.102;2023-11-21T07:13:25;6.48;101.02
75489;HTU21D;64069;46.396;48.102;2023-11-21T07:15:52;6.48;100.95
75489;HTU21D;64069;46.396;48.102;2023-11-21T07:18:18;6.48;100.88
75489;HTU21D;64069;46.396;48.102;2023-11-21T07:20:44;6.48;100.87
75489;HTU21D;64069;46.396;48.102;2023-11-21T07:23:10;6.50;100.80
75489;HTU21D;64069;46.396;48.102;2023-11-21T07:25:37;6.51;100.77
75489;HTU21D;64069;46.396;48.102;2023-11-21T07:28:03;6.52;100.70
75489;HTU21D;64069;46.396;48.102;2023-11-21T07:30:35;6.54;100.67
75489;HTU21D;64069;46.396;48.102;2023-11-21T07:33:01;6.56;100.61
75489;HTU21D;64069;46.396;48.102;2023-11-21T07:35:27;6.56;100.51
75489;HTU21D;64069;46.396;48.102;2023-11-21T07:37:53;6.56;100.47
75489;HTU21D;64069;46.396;48.102;2023-11-21T07:40:19;6.57;100.41
75489;HTU21D;64069;46.396;48.102;2023-11-21T07:42:45;6.57;100.34
75489;HTU21D;64069;46.396;48.102;2023-11-21T07:45:11;6.57;100.25
75489;HTU21D;64069;46.396;48.102;2023-11-21T07:47:37;6.54;100.11
75489;HTU21D;64069;46.396;48.102;2023-11-21T07:50:05;6.54;100.12
75489;HTU21D;64069;46.396;48.102;2023-11-21T07:52:33;6.55;100.06
75489;HTU21D;64069;46.396;48.102;2023-11-21T07:54:59;6.56;100.03
75489;HTU21D;64069;46.396;48.102;2023-11-21T07:57:25;6.55;99.97
75489;HTU21D;64069;46.396;48.102;2023-11-21T07:59:51;6.49;99.92
75489;HTU21D;64069;46.396;48.102;2023-11-21T08:02:20;6.46;99.96
75489;HTU21D;64069;46.396;48.102;2023-11-21T08:04:46;6.44;99.93
75489;HTU21D;64069;46.396;48.102;2023-11-21T08:07:16;6.42;99.94
75489;HTU21D;64069;46.396;48.102;2023-11-21T08:09:43;6.41;99.94
75489;HTU21D;64069;46.396;48.102;2023-11-21T08:12:10;6.37;99.87
75489;HTU21D;64069;46.396;48.102;2023-11-21T08:14:37;6.36;99.86
75489;HTU21D;64069;46.396;48.102;2023-11-21T08:17:04;6.35;99.81
75489;HTU21D;64069;46.396;48.102;2023-11-21T08:19:30;6.31;99.78
75489;HTU21D;64069;46.396;48.102;2023-11-21T08:21:57;6.31;99.80
75489;HTU21D;64069;46.396;48.102;2023-11-21T08:24:25;6.33;99.75
75489;HTU21D;64069;46.396;48.102;2023-11-21T08:26:51;6.29;99.71
75489;HTU21D;64069;46.396;48.102;2023-11-21T08:29:17;6.23;99.67
75489;HTU21D;64069;46.396;48.102;2023-11-21T08:31:44;6.15;99.64
75489;HTU21D;64069;46.396;48.102;2023-11-21T08:34:12;6.08;99.68
75489;HTU21D;64069;46.396;48.102;2023-11-21T08:36:43;6.04;99.71
75489;HTU21D;64069;46.396;48.102;2023-11-21T08:39:09;5.99;99.76
75489;HTU21D;64069;46.396;48.102;2023-11-21T08:41:36;5.94;99.75
75489;HTU21D;64069;46.396;48.102;2023-11-21T08:44:02;5.87;99.82
75489;HTU21D;64069;46.396;48.102;2023-11-21T08:46:33;5.87;99.83
75489;HTU21D;64069;46.396;48.102;2023-11-21T08:49:01;5.84;99.86
75489;HTU21D;64069;46.396;48.102;2023-11-21T08:51:27;5.85;99.86
75489;HTU21D;64069;46.396;48.102;2023-11-21T08:53:53;5.86;99.86
75489;HTU21D;64069;46.396;48.102;2023-11-21T08:56:19;5.84;99.78
75489;HTU21D;64069;46.396;48.102;2023-11-21T08:58:46;5.79;99.81
75489;HTU21D;64069;46.396;48.102;2023-11-21T09:01:16;5.75;99.87
75489;HTU21D;64069;46.396;48.102;2023-11-21T09:03:43;5.72;99.93
75489;HTU21D;64069;46.396;48.102;2023-11-21T09:06:09;5.72;99.97
75489;HTU21D;64069;46.396;48.102;2023-11-21T09:08:35;5.72;99.98
75489;HTU21D;64069;46.396;48.102;2023-11-21T09:11:01;5.69;100.00
75489;HTU21D;64069;46.396;48.102;2023-11-21T09:13:28;5.74;100.04
75489;HTU21D;64069;46.396;48.102;2023-11-21T09:15:55;5.78;100.01
75489;HTU21D;64069;46.396;48.102;2023-11-21T09:18:21;5.79;99.97
75489;HTU21D;64069;46.396;48.102;2023-11-21T09:20:47;5.80;99.93
75489;HTU21D;64069;46.396;48.102;2023-11-21T09:23:14;5.77;99.93
75489;HTU21D;64069;46.396;48.102;2023-11-21T09:25:39;5.75;99.96
75489;HTU21D;64069;46.396;48.102;2023-11-21T09:28:08;5.74;99.99
75489;HTU21D;64069;46.396;48.102;2023-11-21T09:30:39;5.70;99.99
75489;HTU21D;64069;46.396;48.102;2023-11-21T09:33:05;5.67;100.01
75489;HTU21D;64069;46.396;48.102;2023-11-21T09:35:32;5.66;100.06
75489;HTU21D;64069;46.396;48.102;2023-11-21T09:37:58;5.67;100.08
75489;HTU21D;64069;46.396;48.102;2023-11-21T09:40:27;5.68;100.08
75489;HTU21D;64069;46.396;48.102;2023-11-21T09:42:57;5.72;100.04
75489;HTU21D;64069;46.396;48.102;2023-11-21T09:45:27;5.74;100.00
75489;HTU21D;64069;46.396;48.102;2023-11-21T09:47:55;5.72;99.92
75489;HTU21D;64069;46.396;48.102;2023-11-21T09:50:22;5.71;99.91
75489;HTU21D;64069;46.396;48.102;2023-11-21T09:55:28;5.68;99.90
75489;HTU21D;64069;46.396;48.102;2023-11-21T09:57:56;5.70;99.87
75489;HTU21D;64069;46.396;48.102;2023-11-21T10:00:24;5.71;99.85
75489;HTU21D;64069;46.396;48.102;2023-11-21T10:02:56;5.72;99.78
75489;HTU21D;64069;46.396;48.102;2023-11-21T10:05:27;5.68;99.72
75489;HTU21D;64069;46.396;48.102;2023-11-21T10:07:56;5.63;99.64
75489;HTU21D;64069;46.396;48.102;2023-11-21T10:10:23;5.63;99.67
75489;HTU21D;64069;46.396;48.102;2023-11-21T10:12:54;5.61;99.60
75489;HTU21D;64069;46.396;48.102;2023-11-21T10:15:24;5.56;99.51
75489;HTU21D;64069;46.396;48.102;2023-11-21T10:17:53;5.53;99.53
75489;HTU21D;64069;46.396;48.102;2023-11-21T10:20:20;5.50;99.52
75489;HTU21D;64069;46.396;48.102;2023-11-21T10:22:47;5.46;99.55
75489;HTU21D;64069;46.396;48.102;2023-11-21T10:25:13;5.40;99.53
75489;HTU21D;64069;46.396;48.102;2023-11-21T10:27:41;5.36;99.50
75489;HTU21D;64069;46.396;48.102;2023-11-21T10:30:08;5.34;99.52
75489;HTU21D;64069;46.396;48.102;2023-11-21T10:32:42;5.34;99.55
75489;HTU21D;64069;46.396;48.102;2023-11-21T10:35:09;5.35;99.51
75489;HTU21D;64069;46.396;48.102;2023-11-21T10:37:41;5.36;99.42
75489;HTU21D;64069;46.396;48.102;2023-11-21T10:40:10;5.32;99.29
75489;HTU21D;64069;46.396;48.102;2023-11-21T10:42:39;5.26;99.28
75489;HTU21D;64069;46.396;48.102;2023-11-21T10:45:09;5.24;99.28
75489;HTU21D;64069;46.396;48.102;2023-11-21T10:47:41;5.23;99.29
75489;HTU21D;64069;46.396;48.102;2023-11-21T10:50:07;5.24;99.32
75489;HTU21D;64069;46.396;48.102;2023-11-21T10:52:39;5.25;99.24
75489;HTU21D;64069;46.396;48.102;2023-11-21T10:55:18;5.24;99.09
75489;HTU21D;64069;46.396;48.102;2023-11-21T10:57:52;5.31;99.13
75489;HTU21D;64069;46.396;48.102;2023-11-21T11:00:19;5.30;98.94
75489;HTU21D;64069;46.396;48.102;2023-11-21T11:02:50;5.27;98.89
75489;HTU21D;64069;46.396;48.102;2023-11-21T11:05:19;5.26;98.84
75489;HTU21D;64069;46.396;48.102;2023-11-21T11:07:48;5.24;98.77
75489;HTU21D;64069;46.396;48.102;2023-11-21T11:10:24;5.23;98.83
75489;HTU21D;64069;46.396;48.102;2023-11-21T11:12:53;5.24;98.76
75489;HTU21D;64069;46.396;48.102;2023-11-21T11:15:20;5.18;98.74
75489;HTU21D;64069;46.396;48.102;2023-11-21T11:17:47;5.17;98.79
75489;HTU21D;64069;46.396;48.102;2023-11-21T11:20:15;5.16;98.84
75489;HTU21D;64069;46.396;48.102;2023-11-21T11:22:49;5.13;98.77
75489;HTU21D;64069;46.396;48.102;2023-11-21T11:28:27;4.86;98.85
75489;HTU21D;64069;46.396;48.102;2023-11-21T11:36:36;4.65;99.15
75489;HTU21D;64069;46.396;48.102;2023-11-21T11:39:03;4.65;99.18
75489;HTU21D;64069;46.396;48.102;2023-11-21T11:41:50;4.60;99.19
75489;HTU21D;64069;46.396;48.102;2023-11-21T11:47:25;4.47;99.26
75489;HTU21D;64069;46.396;48.102;2023-11-21T11:49:57;4.38;99.35
75489;HTU21D;64069;46.396;48.102;2023-11-21T11:55:05;4.39;99.45
75489;HTU21D;64069;46.396;48.102;2023-11-21T11:57:32;4.37;99.45
75489;HTU21D;64069;46.396;48.102;2023-11-21T12:02:44;4.29;99.48
75489;HTU21D;64069;46.396;48.102;2023-11-21T12:05:18;4.27;99.50
75489;HTU21D;64069;46.396;48.102;2023-11-21T12:07:45;4.24;99.52
75489;HTU21D;64069;46.396;48.102;2023-11-21T12:10:14;4.19;99.55
75489;HTU21D;64069;46.396;48.102;2023-11-21T12:12:50;4.19;99.59
75489;HTU21D;64069;46.396;48.102;2023-11-21T12:15:18;4.20;99.58
75489;HTU21D;64069;46.396;48.102;2023-11-21T12:17:45;4.17;99.55
75489;HTU21D;64069;46.396;48.102;2023-11-21T12:20:13;4.14;99.54
75489;HTU21D;64069;46.396;48.102;2023-11-21T12:22:47;4.10;99.57
75489;HTU21D;64069;46.396;48.102;2023-11-21T12:25:17;4.08;99.57
75489;HTU21D;64069;46.396;48.102;2023-11-21T12:27:49;4.07;99.61
75489;HTU21D;64069;46.396;48.102;2023-11-21T12:30:19;4.06;99.57
75489;HTU21D;64069;46.396;48.102;2023-11-21T12:32:49;4.02;99.59
75489;HTU21D;64069;46.396;48.102;2023-11-21T12:35:22;3.97;99.61
75489;HTU21D;64069;46.396;48.102;2023-11-21T12:37:48;3.93;99.66
75489;HTU21D;64069;46.396;48.102;2023-11-21T12:40:15;3.91;99.66
75489;HTU21D;64069;46.396;48.102;2023-11-21T12:42:47;3.88;99.67
75489;HTU21D;64069;46.396;48.102;2023-11-21T12:48:04;3.82;99.69
75489;HTU21D;64069;46.396;48.102;2023-11-21T12:50:34;3.79;99.68
75489;HTU21D;64069;46.396;48.102;2023-11-21T12:53:04;3.78;99.67
75489;HTU21D;64069;46.396;48.102;2023-11-21T12:55:32;3.76;99.68
75489;HTU21D;64069;46.396;48.102;2023-11-21T12:58:01;3.74;99.65
75489;HTU21D;64069;46.396;48.102;2023-11-21T13:00:42;3.71;99.65
75489;HTU21D;64069;46.396;48.102;2023-11-21T13:03:10;3.69;99.63
75489;HTU21D;64069;46.396;48.102;2023-11-21T13:05:41;3.65;99.61
75489;HTU21D;64069;46.396;48.102;2023-11-21T13:08:12;3.63;99.64
75489;HTU21D;64069;46.396;48.102;2023-11-21T13:10:44;3.60;99.65
75489;HTU21D;64069;46.396;48.102;2023-11-21T13:13:13;3.59;99.64
75489;HTU21D;64069;46.396;48.102;2023-11-21T13:15:57;3.56;99.63
75489;HTU21D;64069;46.396;48.102;2023-11-21T13:18:28;3.53;99.64
75489;HTU21D;64069;46.396;48.102;2023-11-21T13:20:57;3.52;99.67
75489;HTU21D;64069;46.396;48.102;2023-11-21T13:23:25;3.48;99.71
75489;HTU21D;64069;46.396;48.102;2023-11-21T13:25:51;3.46;99.77
75489;HTU21D;64069;46.396;48.102;2023-11-21T13:28:18;3.43;99.81
75489;HTU21D;64069;46.396;48.102;2023-11-21T13:30:49;3.40;99.86
75489;HTU21D;64069;46.396;48.102;2023-11-21T13:33:18;3.38;99.92
75489;HTU21D;64069;46.396;48.102;2023-11-21T13:35:47;3.32;99.90
75489;HTU21D;64069;46.396;48.102;2023-11-21T13:38:17;3.28;99.93
75489;HTU21D;64069;46.396;48.102;2023-11-21T13:40:53;3.23;99.93
75489;HTU21D;64069;46.396;48.102;2023-11-21T13:43:25;3.16;99.93
75489;HTU21D;64069;46.396;48.102;2023-11-21T13:45:53;3.10;99.94
75489;HTU21D;64069;46.396;48.102;2023-11-21T13:48:37;3.05;99.93
75489;HTU21D;64069;46.396;48.102;2023-11-21T13:51:08;3.00;99.93
75489;HTU21D;64069;46.396;48.102;2023-11-21T13:53:47;2.96;99.93
75489;HTU21D;64069;46.396;48.102;2023-11-21T13:56:22;2.91;99.87
75489;HTU21D;64069;46.396;48.102;2023-11-21T13:58:50;2.87;99.87
75489;HTU21D;64069;46.396;48.102;2023-11-21T14:01:18;2.85;99.88
75489;HTU21D;64069;46.396;48.102;2023-11-21T14:04:04;2.82;99.90
75489;HTU21D;64069;46.396;48.102;2023-11-21T14:06:49;2.81;99.92
75489;HTU21D;64069;46.396;48.102;2023-11-21T14:09:18;2.79;99.92
75489;HTU21D;64069;46.396;48.102;2023-11-21T14:11:53;2.74;99.92
75489;HTU21D;64069;46.396;48.102;2023-11-21T14:14:20;2.71;99.96
75489;HTU21D;64069;46.396;48.102;2023-11-21T14:16:50;2.67;99.97
75489;HTU21D;64069;46.396;48.102;2023-11-21T14:19:17;2.65;100.00
75489;HTU21D;64069;46.396;48.102;2023-11-21T14:21:47;2.65;100.03
75489;HTU21D;64069;46.396;48.102;2023-11-21T14:24:18;2.61;100.02
75489;HTU21D;64069;46.396;48.102;2023-11-21T14:26:46;2.58;100.02
75489;HTU21D;64069;46.396;48.102;2023-11-21T14:29:16;2.53;100.03
75489;HTU21D;64069;46.396;48.102;2023-11-21T14:31:46;2.49;100.09
75489;HTU21D;64069;46.396;48.102;2023-11-21T14:34:12;2.46;100.13
75489;HTU21D;64069;46.396;48.102;2023-11-21T14:36:39;2.43;100.16
75489;HTU21D;64069;46.396;48.102;2023-11-21T14:39:06;2.40;100.18
75489;HTU21D;64069;46.396;48.102;2023-11-21T14:41:58;2.35;100.20
75489;HTU21D;64069;46.396;48.102;2023-11-21T14:44:27;2.31;100.22
75489;HTU21D;64069;46.396;48.102;2023-11-21T14:46:58;2.28;100.25
75489;HTU21D;64069;46.396;48.102;2023-11-21T14:49:25;2.24;100.27
75489;HTU21D;64069;46.396;48.102;2023-11-21T14:51:56;2.21;100.29
75489;HTU21D;64069;46.396;48.102;2023-11-21T14:54:29;2.17;100.32
75489;HTU21D;64069;46.396;48.102;2023-11-21T14:57:12;2.15;100.32
75489;HTU21D;64069;46.396;48.102;2023-11-21T14:59:47;2.11;100.37
75489;HTU21D;64069;46.396;48.102;2023-11-21T15:02:18;2.06;100.36
75489;HTU21D;64069;46.396;48.102;2023-11-21T15:04:51;2.05;100.38
75489;HTU21D;64069;46.396;48.102;2023-11-21T15:07:18;2.00;100.45
75489;HTU21D;64069;46.396;48.102;2023-11-21T15:09:44;1.95;100.48
75489;HTU21D;64069;46.396;48.102;2023-11-21T15:12:11;1.92;100.50
75489;HTU21D;64069;46.396;48.102;2023-11-21T15:14:45;1.86;100.53
75489;HTU21D;64069;46.396;48.102;2023-11-21T15:17:14;1.82;100.59
75489;HTU21D;64069;46.396;48.102;2023-11-21T15:20:16;1.79;100.61
75489;HTU21D;64069;46.396;48.102;2023-11-21T15:22:50;1.77;100.62
75489;HTU21D;64069;46.396;48.102;2023-11-21T15:25:16;1.76;100.64
75489;HTU21D;64069;46.396;48.102;2023-11-21T15:27:43;1.71;100.67
75489;HTU21D;64069;46.396;48.102;2023-11-21T15:30:09;1.69;100.69
75489;HTU21D;64069;46.396;48.102;2023-11-21T15:32:35;1.68;100.74
75489;HTU21D;64069;46.396;48.102;2023-11-21T15:35:01;1.65;100.80